Meteo Giornale » Osservazioni meteo Stati Uniti (USA) » Fairchild
ore: 12:41 - Osservazioni Meteo Fairchild
Lat. 47° 37' N Lon. 117° 39' W Alt. 750 metri s.l.m.
27 °C
Poco Nuvoloso
Temp. 24 Ore
15 °C
27 °C
Sud/Sud-Ovest
7.4 Km/h
Dew point 6 °C
Umidità 26 %
Visibilità 10 Km
Il sole sorge alle ore 06:09
Il sole tramonta alle ore 19:31
| Data e Ora | Cielo e Fenomeni | T °C | DP °C | Um. % | Pres. hPa | Vis. km | Vento km/h | |
|---|---|---|---|---|---|---|---|---|
| Oggi h: 12:41 | Poco Nuvoloso | 27 | 6 | 26 | 1007 | 10 | S/SO 7.4 | |
| Oggi h: 11:55 | Poco Nuvoloso | 24 | 6 | 31 | 1008 | 10 | N 0 | |
| Oggi h: 10:55 | Nuvoloso | 21 | 6 | 37 | 1008 | 10 | E/SE 7.4 | |
| Oggi h: 09:55 | Sereno | 20 | 6 | 39 | 1007 | 10 | E/NE 22.2 | |
| Oggi h: 08:55 | Sereno | 18 | 6 | 45 | 1008 | 10 | N/NE 16.7 | |
| Oggi h: 07:55 | Nuvoloso | 16 | 6 | 51 | 1008 | 10 | NE 16.7 | |
| Oggi h: 06:55 | Poco Nuvoloso | 15 | 5 | 51 | 1008 | 10 | NE 16.7 | |
| Oggi h: 05:55 | Sereno | 15 | 5 | 51 | 1008 | 10 | NE 11.1 | |
| Oggi h: 04:55 | Sereno | 15 | 5 | 51 | 1009 | 10 | NE 13 | |
| Oggi h: 03:55 | Sereno | 15 | 4 | 47 | 1009 | 10 | NE 11.1 | |
| Oggi h: 02:55 | Sereno | 15 | 4 | 47 | 1009 | 10 | NE 7.4 | |
| Oggi h: 01:55 | Sereno | 17 | 4 | 41 | 1009 | 10 | N/NE 7.4 | |
| Oggi h: 00:55 | Sereno | 18 | 4 | 39 | 1009 | 10 | N/NE 7.4 | |
| Ieri h: 23:55 | Sereno | 19 | 3 | 34 | 1009 | 10 | N/NE 7.4 | |
| Ieri h: 22:55 | Sereno | 18 | 3 | 36 | 1009 | 10 | E/NE 7.4 | |
| Ieri h: 21:55 | Sereno | 20 | 2 | 30 | 1010 | 10 | N/NE 13 | |
| Ieri h: 20:55 | Sereno | 21 | 2 | 28 | 1010 | 10 | N/NE 13 | |
| Ieri h: 19:55 | Sereno | 23 | 2 | 25 | 1010 | 10 | N/NE 9.3 | |
| Ieri h: 18:55 | Sereno | 26 | 2 | 20 | 1010 | 10 | E/NE 13 | |
| Ieri h: 17:55 | Sereno | 27 | 2 | 19 | 1011 | 10 | NE 7.4 | |
| Ieri h: 16:55 | Sereno | 27 | 1 | 18 | 1011 | 10 | E/NE 11.1 | |
| Ieri h: 15:55 | Sereno | 27 | 2 | 19 | 1012 | 10 | N 5.5 | |
| Ieri h: 14:55 | Sereno | 26 | 2 | 20 | 1013 | 10 | N 5.5 | |
| Ieri h: 13:55 | Sereno | 25 | 2 | 22 | 1014 | 10 | NE 9.3 | |



